createdAt,value
2023-04-27T11:05:00.245Z,11.6
2023-04-27T11:10:00.298Z,12.1
2023-04-27T11:15:00.281Z,12.1
2023-04-27T11:20:00.265Z,12.3
2023-04-27T11:25:00.245Z,12.1
2023-04-27T11:30:00.256Z,12.5
2023-04-27T11:35:00.256Z,12.8
2023-04-27T11:40:00.216Z,12.9
2023-04-27T11:45:00.235Z,12.1
2023-04-27T11:50:00.240Z,13.1
2023-04-27T11:55:00.293Z,13.1
2023-04-27T12:00:00.580Z,13.7
2023-04-27T12:05:00.363Z,13.8
2023-04-27T12:10:01.180Z,13.7
2023-04-27T12:15:06.606Z,13.2
2023-04-27T12:20:00.281Z,12.9
2023-04-27T12:25:00.298Z,12.4
2023-04-27T12:30:00.230Z,13.2
2023-04-27T12:35:00.235Z,12.8
2023-04-27T12:40:00.339Z,13.6
2023-04-27T12:45:00.257Z,13.6
2023-04-27T12:50:00.271Z,13.0
2023-04-27T12:55:00.234Z,13.5
2023-04-27T13:00:01.894Z,12.5
2023-04-27T13:05:00.341Z,13.5
2023-04-27T13:10:00.264Z,13.7
2023-04-27T13:15:00.269Z,14.0
2023-04-27T13:20:00.248Z,13.5
2023-04-27T13:25:00.238Z,13.0
2023-04-27T13:30:00.251Z,13.0
2023-04-27T13:35:00.224Z,13.0
2023-04-27T13:40:00.235Z,13.2
2023-04-27T13:45:00.282Z,13.5
2023-04-27T13:50:00.239Z,14.1
2023-04-27T13:55:00.256Z,14.4
2023-04-27T14:00:00.251Z,14.1
2023-04-27T14:05:00.286Z,13.9
2023-04-27T14:10:00.231Z,13.7
2023-04-27T14:15:00.228Z,13.9
2023-04-27T14:20:00.267Z,13.5
2023-04-27T14:25:00.270Z,13.3
2023-04-27T14:30:00.274Z,13.4
2023-04-27T14:35:00.275Z,12.7
2023-04-27T14:40:00.247Z,13.9
2023-04-27T14:45:00.240Z,13.6
2023-04-27T14:50:00.262Z,13.2
2023-04-27T14:55:00.231Z,13.3
2023-04-27T15:00:00.366Z,13.4
2023-04-27T15:05:00.596Z,13.3
2023-04-27T15:10:00.279Z,13.6
2023-04-27T15:15:00.228Z,13.8
2023-04-27T15:20:00.239Z,13.5
2023-04-27T15:25:00.277Z,13.7
2023-04-27T15:30:00.306Z,13.5
2023-04-27T15:35:00.263Z,13.9
2023-04-27T15:40:00.237Z,13.7
2023-04-27T15:45:00.256Z,13.6
2023-04-27T15:50:00.244Z,13.6
2023-04-27T15:55:00.239Z,13.1
2023-04-27T16:00:00.301Z,13.2
2023-04-27T16:05:00.262Z,13.3
2023-04-27T16:10:00.389Z,13.4
2023-04-27T16:15:00.278Z,13.4
2023-04-27T16:20:00.346Z,13.3
2023-04-27T16:25:00.337Z,13.2
2023-04-27T16:30:00.219Z,13.2
2023-04-27T16:35:00.217Z,13.2
2023-04-27T16:40:00.367Z,12.8
2023-04-27T16:45:00.421Z,13.0
2023-04-27T16:50:00.245Z,12.9
2023-04-27T16:55:00.238Z,12.7
2023-04-27T17:00:00.433Z,12.6
2023-04-27T17:05:00.290Z,12.5
2023-04-27T17:10:00.374Z,12.4
2023-04-27T17:15:00.247Z,12.3
2023-04-27T17:20:00.368Z,12.2
2023-04-27T17:25:00.241Z,12.2
2023-04-27T17:30:00.257Z,12.2
2023-04-27T17:35:00.316Z,12.2
2023-04-27T17:40:00.249Z,12.0
2023-04-27T17:45:00.219Z,12.0
2023-04-27T17:50:00.301Z,11.9
2023-04-27T17:55:00.221Z,11.9
2023-04-27T18:00:00.248Z,11.7
2023-04-27T18:25:00.813Z,11.3
2023-04-27T18:30:00.793Z,11.2
2023-04-27T18:35:00.986Z,11.1
2023-04-27T18:40:00.746Z,11.0
2023-04-27T18:45:01.073Z,10.9
2023-04-27T18:50:00.658Z,10.8
2023-04-27T18:55:00.629Z,10.8
2023-04-27T19:00:00.768Z,10.6
2023-04-27T19:10:00.579Z,10.5
2023-04-27T19:15:00.582Z,10.4
2023-04-27T19:20:00.689Z,10.2
2023-04-27T19:25:00.655Z,10.2
2023-04-27T19:30:00.749Z,10.1
2023-04-27T19:35:00.614Z,10.0
2023-04-27T19:40:00.590Z,9.9
2023-04-27T19:45:00.631Z,9.8
2023-04-27T19:50:00.654Z,9.6
2023-04-27T19:55:00.583Z,9.5
2023-04-27T20:00:00.669Z,9.5
2023-04-27T20:05:01.075Z,9.5
2023-04-27T20:10:00.676Z,9.4
2023-04-27T20:15:00.655Z,9.4
2023-04-27T20:20:00.740Z,9.4
2023-04-27T20:25:00.702Z,9.4
2023-04-27T20:30:00.614Z,9.3
2023-04-27T20:35:02.156Z,9.3
2023-04-27T20:40:00.597Z,9.3
2023-04-27T20:45:00.574Z,9.4
2023-04-27T20:50:00.651Z,9.4
2023-04-27T20:55:00.618Z,9.4
2023-04-27T21:00:00.691Z,9.5
2023-04-27T21:05:00.755Z,9.4
2023-04-27T21:10:00.669Z,9.3
2023-04-27T21:15:00.696Z,9.4
2023-04-27T21:20:00.596Z,9.3
2023-04-27T21:25:00.609Z,9.3
2023-04-27T21:30:00.655Z,9.3
2023-04-27T21:35:00.601Z,9.2
2023-04-27T21:40:00.647Z,9.2
2023-04-27T21:45:00.613Z,9.2
2023-04-27T21:50:00.584Z,9.2
2023-04-27T21:55:00.631Z,9.1
2023-04-27T22:00:00.690Z,9.1
2023-04-27T22:05:00.620Z,9.1
2023-04-27T22:10:00.690Z,9.1
2023-04-27T22:15:00.694Z,9.1
2023-04-27T22:20:00.724Z,9.0
2023-04-27T22:25:00.574Z,9.0
2023-04-27T22:30:00.610Z,9.0
2023-04-27T22:35:00.717Z,9.0
2023-04-27T22:40:00.637Z,8.9
2023-04-27T22:45:00.676Z,8.9
2023-04-27T22:50:00.624Z,9.0
2023-04-27T22:55:00.758Z,8.9
2023-04-27T23:00:00.603Z,8.8
2023-04-27T23:05:00.670Z,8.8
2023-04-27T23:10:00.655Z,8.7
2023-04-27T23:15:00.666Z,8.7
2023-04-27T23:20:00.692Z,8.7
2023-04-27T23:25:00.648Z,8.7
2023-04-27T23:30:00.677Z,8.5
2023-04-27T23:35:00.739Z,8.4
2023-04-27T23:40:00.641Z,8.4
2023-04-27T23:45:00.785Z,8.3
2023-04-27T23:50:00.725Z,8.3
2023-04-27T23:55:00.667Z,8.1
